createdAt,value
2022-08-28T00:01:02.202Z,16.10
2022-08-28T00:03:30.365Z,16.06
2022-08-28T00:05:58.373Z,15.92
2022-08-28T00:08:26.836Z,15.91
2022-08-28T00:10:54.420Z,15.85
2022-08-28T00:13:24.304Z,15.87
2022-08-28T00:15:58.230Z,15.81
2022-08-28T00:18:26.501Z,15.82
2022-08-28T00:20:54.168Z,15.77
2022-08-28T00:23:22.497Z,15.75
2022-08-28T00:25:49.743Z,15.80
2022-08-28T00:28:24.325Z,15.84
2022-08-28T00:30:54.990Z,15.81
2022-08-28T00:33:29.991Z,15.71
2022-08-28T00:35:58.201Z,15.62
2022-08-28T00:38:28.486Z,15.61
2022-08-28T00:41:00.845Z,15.55
2022-08-28T00:43:46.682Z,15.54
2022-08-28T00:46:31.656Z,15.49
2022-08-28T00:48:58.856Z,15.43
2022-08-28T00:51:46.192Z,15.42
2022-08-28T00:54:13.869Z,15.44
2022-08-28T00:56:41.579Z,15.42
2022-08-28T00:59:12.348Z,15.39
2022-08-28T01:01:39.650Z,15.40
2022-08-28T01:04:07.062Z,15.40
2022-08-28T01:06:35.958Z,15.39
2022-08-28T01:09:04.822Z,15.33
2022-08-28T01:11:32.826Z,15.27
2022-08-28T01:14:03.087Z,15.22
2022-08-28T01:16:34.257Z,15.24
2022-08-28T01:19:05.874Z,15.23
2022-08-28T01:21:41.621Z,15.22
2022-08-28T01:24:14.937Z,15.24
2022-08-28T01:26:43.037Z,15.18
2022-08-28T01:29:11.871Z,15.13
2022-08-28T01:31:40.802Z,15.05
2022-08-28T01:34:12.090Z,15.07
2022-08-28T01:36:39.789Z,15.04
2022-08-28T01:39:17.327Z,15.05
2022-08-28T01:41:47.466Z,15.03
2022-08-28T01:44:18.017Z,15.00
2022-08-28T01:46:46.422Z,14.98
2022-08-28T01:49:14.099Z,14.91
2022-08-28T01:51:41.823Z,14.94
2022-08-28T01:54:10.649Z,14.96
2022-08-28T01:56:41.409Z,14.90
2022-08-28T01:59:10.023Z,14.87
2022-08-28T02:01:38.058Z,14.83
2022-08-28T02:04:05.978Z,14.82
2022-08-28T02:06:34.267Z,14.79
2022-08-28T02:09:01.800Z,14.79
2022-08-28T02:11:30.930Z,14.76
2022-08-28T02:13:58.148Z,14.62
2022-08-28T02:16:27.372Z,14.73
2022-08-28T02:18:54.582Z,14.71
2022-08-28T02:21:21.619Z,14.69
2022-08-28T02:23:49.019Z,14.67
2022-08-28T02:26:16.268Z,14.59
2022-08-28T02:28:43.524Z,14.65
2022-08-28T02:31:11.438Z,14.62
2022-08-28T02:33:40.885Z,14.61
2022-08-28T02:36:09.372Z,14.57
2022-08-28T02:38:37.897Z,14.58
2022-08-28T02:41:06.445Z,14.61
2022-08-28T02:43:34.092Z,14.52
2022-08-28T02:46:01.202Z,14.52
2022-08-28T02:48:30.364Z,14.48
2022-08-28T02:51:03.332Z,14.43
2022-08-28T02:53:30.764Z,14.46
2022-08-28T02:55:58.874Z,14.51
2022-08-28T02:58:29.941Z,14.51
2022-08-28T03:00:58.003Z,14.47
2022-08-28T03:03:27.575Z,14.43
2022-08-28T03:05:55.700Z,14.44
2022-08-28T03:08:27.144Z,14.42
2022-08-28T03:10:55.224Z,14.35
2022-08-28T03:13:26.716Z,14.34
2022-08-28T03:15:55.827Z,14.41
2022-08-28T03:18:25.265Z,14.37
2022-08-28T03:20:53.840Z,14.38
2022-08-28T03:23:27.052Z,14.36
2022-08-28T03:26:01.879Z,14.37
2022-08-28T03:28:35.505Z,14.36
2022-08-28T03:31:02.650Z,14.33
2022-08-28T03:33:29.922Z,14.29
2022-08-28T03:35:57.440Z,14.30
2022-08-28T03:38:25.296Z,14.32
2022-08-28T03:40:53.506Z,14.33
2022-08-28T03:43:25.737Z,14.33
2022-08-28T03:45:59.185Z,14.32
2022-08-28T03:48:29.291Z,14.30
2022-08-28T03:50:56.574Z,14.34
2022-08-28T03:53:26.089Z,14.33
2022-08-28T03:55:53.718Z,14.28
2022-08-28T03:58:20.828Z,14.30
2022-08-28T04:00:48.257Z,14.31
2022-08-28T04:03:15.550Z,14.33
2022-08-28T04:05:45.821Z,14.34
2022-08-28T04:08:19.019Z,14.35
2022-08-28T04:10:47.508Z,14.41
2022-08-28T04:13:16.473Z,14.42
2022-08-28T04:15:44.081Z,14.42
2022-08-28T04:18:12.230Z,14.43
2022-08-28T04:20:39.501Z,14.50
2022-08-28T04:23:08.429Z,14.47
2022-08-28T04:25:35.834Z,14.56
2022-08-28T04:28:03.122Z,14.62
2022-08-28T04:30:30.270Z,14.67
2022-08-28T04:32:57.642Z,14.75
2022-08-28T04:35:25.743Z,14.77
2022-08-28T04:37:54.729Z,14.82
2022-08-28T04:40:24.481Z,14.84
2022-08-28T04:42:51.744Z,14.88
2022-08-28T04:45:18.747Z,14.89
2022-08-28T04:47:45.950Z,14.96
2022-08-28T04:50:13.095Z,14.96
2022-08-28T04:52:40.539Z,14.99
2022-08-28T04:55:08.369Z,14.98
2022-08-28T04:57:36.480Z,15.04
2022-08-28T05:00:06.974Z,15.12
2022-08-28T05:02:34.050Z,15.10
2022-08-28T05:05:01.188Z,15.15
2022-08-28T05:07:28.588Z,15.01
2022-08-28T05:09:56.021Z,15.10
2022-08-28T05:12:23.518Z,15.07
2022-08-28T05:14:50.957Z,15.08
2022-08-28T05:17:18.083Z,15.08
2022-08-28T05:19:45.386Z,15.04
2022-08-28T05:22:12.486Z,15.07
2022-08-28T05:24:40.500Z,15.18
2022-08-28T05:27:08.684Z,15.13
2022-08-28T05:29:35.830Z,15.20
2022-08-28T05:32:04.003Z,15.15
2022-08-28T05:34:31.701Z,15.24
2022-08-28T05:37:01.485Z,15.23
2022-08-28T05:39:28.568Z,15.28
2022-08-28T05:41:55.681Z,15.35
2022-08-28T05:44:23.162Z,15.37
2022-08-28T05:46:51.148Z,15.41
2022-08-28T05:49:19.680Z,15.49
2022-08-28T05:51:47.363Z,15.48
2022-08-28T05:54:15.758Z,15.52
2022-08-28T05:56:45.015Z,15.59
2022-08-28T05:59:13.337Z,15.60
2022-08-28T06:01:46.612Z,15.64
2022-08-28T06:04:18.096Z,15.64
2022-08-28T06:06:45.801Z,15.72
2022-08-28T06:09:29.037Z,15.81
2022-08-28T06:11:59.147Z,15.80
2022-08-28T06:14:27.472Z,15.84
2022-08-28T06:16:55.849Z,15.88
2022-08-28T06:19:25.074Z,15.98
2022-08-28T06:21:57.267Z,16.05
2022-08-28T06:24:25.534Z,16.08
2022-08-28T06:26:52.804Z,16.07
2022-08-28T06:29:24.890Z,16.18
2022-08-28T06:32:01.901Z,16.22
2022-08-28T06:34:29.562Z,16.35
2022-08-28T06:36:56.939Z,16.48
2022-08-28T06:39:23.978Z,16.54
2022-08-28T06:41:51.200Z,16.59
2022-08-28T06:44:20.495Z,16.60
2022-08-28T06:46:49.573Z,16.76
2022-08-28T06:49:17.258Z,16.75
2022-08-28T06:51:44.401Z,16.83
2022-08-28T06:54:11.884Z,16.93
2022-08-28T06:56:39.184Z,17.02
2022-08-28T06:59:06.441Z,17.09
2022-08-28T07:01:36.336Z,17.11
2022-08-28T07:04:06.992Z,17.13
2022-08-28T07:06:36.967Z,17.19
2022-08-28T07:09:06.191Z,17.25
2022-08-28T07:11:36.143Z,17.28
2022-08-28T07:14:04.666Z,17.24
2022-08-28T07:16:38.508Z,17.36
2022-08-28T07:19:07.750Z,17.39
2022-08-28T07:21:39.249Z,17.46
2022-08-28T07:24:08.401Z,17.53
2022-08-28T07:26:36.702Z,17.75
2022-08-28T07:29:09.943Z,17.74
2022-08-28T07:31:44.039Z,17.88
2022-08-28T07:34:13.560Z,17.97
2022-08-28T07:36:41.379Z,18.02
2022-08-28T07:39:10.286Z,18.23
2022-08-28T07:41:40.237Z,18.35
2022-08-28T07:44:28.065Z,18.38
2022-08-28T07:46:57.122Z,18.42
2022-08-28T07:49:25.702Z,18.33
2022-08-28T07:51:53.967Z,18.29
2022-08-28T07:54:22.796Z,18.37
2022-08-28T07:56:50.931Z,18.50
2022-08-28T07:59:19.588Z,18.63
2022-08-28T08:01:48.888Z,18.87
2022-08-28T08:04:17.525Z,19.08
2022-08-28T08:06:47.424Z,19.21
2022-08-28T08:09:18.391Z,19.39
2022-08-28T08:11:47.498Z,19.34
2022-08-28T08:14:17.041Z,19.35
2022-08-28T08:16:46.042Z,19.36
2022-08-28T08:19:14.277Z,19.46
2022-08-28T08:21:44.124Z,19.35
2022-08-28T08:24:19.683Z,19.19
2022-08-28T08:26:56.556Z,19.09
2022-08-28T08:29:32.812Z,19.20
2022-08-28T08:32:05.589Z,19.41
2022-08-28T08:34:36.800Z,19.56
2022-08-28T08:37:06.080Z,19.77
2022-08-28T08:39:36.585Z,19.84
2022-08-28T08:42:21.779Z,20.11
2022-08-28T08:44:50.438Z,20.03
2022-08-28T08:47:30.835Z,19.91
2022-08-28T08:50:11.406Z,20.01
2022-08-28T08:52:57.156Z,20.02
2022-08-28T08:55:34.394Z,19.87
2022-08-28T08:58:11.486Z,20.02
2022-08-28T09:00:49.514Z,20.07
2022-08-28T09:03:24.743Z,20.14
2022-08-28T09:05:58.617Z,20.25
2022-08-28T09:08:42.427Z,20.11
2022-08-28T09:11:18.706Z,19.99
2022-08-28T09:14:05.296Z,20.11
2022-08-28T09:16:38.561Z,20.24
2022-08-28T09:19:09.605Z,20.38
2022-08-28T09:21:41.228Z,20.54
2022-08-28T09:24:20.814Z,20.15
2022-08-28T09:26:54.640Z,20.11
2022-08-28T09:29:28.614Z,20.43
2022-08-28T09:31:56.709Z,20.56
2022-08-28T09:34:26.695Z,20.91
2022-08-28T09:36:56.255Z,20.89
2022-08-28T09:39:29.327Z,20.79
2022-08-28T09:42:36.788Z,20.77
2022-08-28T09:45:18.333Z,20.82
2022-08-28T09:47:48.970Z,20.90
2022-08-28T09:50:37.682Z,20.96
2022-08-28T09:53:11.768Z,21.13
2022-08-28T09:55:53.563Z,21.27
2022-08-28T09:58:22.160Z,21.38
2022-08-28T10:01:08.047Z,21.40
2022-08-28T10:04:05.418Z,21.26
2022-08-28T10:06:37.393Z,21.24
2022-08-28T10:09:09.800Z,21.09
2022-08-28T10:11:58.868Z,21.19
2022-08-28T10:14:32.901Z,21.41
2022-08-28T10:17:25.473Z,21.41
2022-08-28T10:20:15.800Z,21.23
2022-08-28T10:22:58.070Z,21.52
2022-08-28T10:25:39.248Z,22.11
2022-08-28T10:28:31.812Z,22.74
2022-08-28T10:31:09.196Z,22.71
2022-08-28T10:34:11.156Z,22.36
2022-08-28T10:36:38.334Z,22.53
2022-08-28T10:39:27.297Z,22.61
2022-08-28T10:41:59.610Z,22.31
2022-08-28T10:45:05.528Z,22.84
2022-08-28T10:47:39.966Z,22.76
2022-08-28T10:50:15.871Z,22.68
2022-08-28T10:52:48.716Z,22.62
2022-08-28T10:55:24.065Z,22.73
2022-08-28T10:57:58.164Z,22.67
2022-08-28T11:00:27.752Z,22.55
2022-08-28T11:02:58.286Z,22.33
2022-08-28T11:05:32.030Z,22.20
2022-08-28T11:08:02.308Z,22.03
2022-08-28T11:10:32.616Z,22.70
2022-08-28T11:13:00.659Z,23.08
2022-08-28T11:15:34.211Z,23.59
2022-08-28T11:18:16.424Z,23.71
2022-08-28T11:21:02.659Z,23.84
2022-08-28T11:23:56.560Z,24.41
2022-08-28T11:26:32.824Z,24.37
2022-08-28T11:29:03.811Z,23.90
2022-08-28T11:31:34.661Z,23.77
2022-08-28T11:34:02.893Z,23.75
2022-08-28T11:36:30.429Z,23.96
2022-08-28T11:38:58.443Z,24.76
2022-08-28T11:41:34.872Z,24.82
2022-08-28T11:44:11.564Z,24.05
2022-08-28T11:46:41.572Z,23.80
2022-08-28T11:49:24.619Z,23.48
2022-08-28T11:52:23.223Z,23.51
2022-08-28T11:55:22.093Z,23.45
2022-08-28T11:58:24.501Z,23.29
2022-08-28T12:01:06.789Z,23.05
2022-08-28T12:03:37.401Z,23.11
2022-08-28T12:06:06.318Z,23.38
2022-08-28T12:08:47.127Z,24.59
2022-08-28T12:11:39.177Z,24.43
2022-08-28T12:14:08.743Z,23.68
2022-08-28T12:17:08.996Z,23.67
2022-08-28T12:19:55.451Z,23.28
2022-08-28T12:22:27.350Z,23.22
2022-08-28T12:25:01.124Z,23.25
2022-08-28T12:27:29.210Z,23.16
2022-08-28T12:29:59.714Z,23.28
2022-08-28T12:32:32.757Z,24.12
2022-08-28T12:35:00.191Z,24.71
2022-08-28T12:37:39.532Z,24.33
2022-08-28T12:40:30.049Z,24.34
2022-08-28T12:43:01.807Z,24.30
2022-08-28T12:45:42.493Z,24.33
2022-08-28T12:48:33.091Z,24.48
2022-08-28T12:51:05.124Z,24.46
2022-08-28T12:53:39.844Z,25.35
2022-08-28T12:56:09.788Z,26.53
2022-08-28T12:58:39.480Z,25.17
2022-08-28T13:01:23.703Z,24.79
2022-08-28T13:03:54.534Z,24.79
2022-08-28T13:06:31.300Z,24.53
2022-08-28T13:09:02.190Z,24.38
2022-08-28T13:11:35.176Z,24.23
2022-08-28T13:14:04.529Z,24.05
2022-08-28T13:16:47.688Z,23.94
2022-08-28T13:19:29.050Z,23.64
2022-08-28T13:22:02.007Z,23.93
2022-08-28T13:24:31.944Z,23.81
2022-08-28T13:27:21.521Z,24.87
2022-08-28T13:30:16.686Z,25.19
2022-08-28T13:33:02.742Z,25.85
2022-08-28T13:35:36.131Z,25.09
2022-08-28T13:38:08.328Z,24.53
2022-08-28T13:43:30.675Z,23.52
2022-08-28T13:45:58.153Z,23.69
2022-08-28T13:48:26.896Z,24.94
2022-08-28T13:51:01.476Z,24.67
2022-08-28T13:53:30.789Z,24.22
2022-08-28T13:56:00.282Z,23.89
2022-08-28T13:58:28.283Z,23.67
2022-08-28T14:00:56.094Z,23.68
2022-08-28T14:03:39.215Z,23.63
2022-08-28T14:06:11.965Z,23.46
2022-08-28T14:08:44.010Z,24.08
2022-08-28T14:11:13.278Z,24.46
2022-08-28T14:13:46.965Z,24.34
2022-08-28T14:16:24.932Z,23.85
2022-08-28T14:18:52.957Z,23.21
2022-08-28T14:21:21.956Z,22.95
2022-08-28T14:23:49.181Z,22.67
2022-08-28T14:26:16.436Z,22.49
2022-08-28T14:28:43.617Z,22.83
2022-08-28T14:31:14.418Z,23.01
2022-08-28T14:33:45.242Z,24.15
2022-08-28T14:36:22.448Z,24.16
2022-08-28T14:38:53.835Z,23.37
2022-08-28T14:41:25.423Z,23.13
2022-08-28T14:43:54.049Z,24.15
2022-08-28T14:46:33.847Z,24.64
2022-08-28T14:49:05.282Z,24.14
2022-08-28T14:51:34.562Z,24.06
2022-08-28T14:54:02.948Z,25.31
2022-08-28T14:56:31.667Z,25.10
2022-08-28T14:59:00.565Z,24.37
2022-08-28T15:01:39.652Z,24.46
2022-08-28T15:04:11.203Z,24.83
2022-08-28T15:06:39.171Z,24.47
2022-08-28T15:09:06.488Z,24.31
2022-08-28T15:11:35.457Z,23.74
2022-08-28T15:14:02.695Z,23.34
2022-08-28T15:16:36.782Z,22.99
2022-08-28T15:19:04.662Z,22.74
2022-08-28T15:21:35.608Z,22.50
2022-08-28T15:24:04.853Z,22.40
2022-08-28T15:26:32.866Z,22.17
2022-08-28T15:29:03.709Z,22.19
2022-08-28T15:31:34.525Z,22.24
2022-08-28T15:34:13.449Z,22.40
2022-08-28T15:36:43.169Z,22.74
2022-08-28T15:39:29.431Z,22.75
2022-08-28T15:41:57.220Z,22.69
2022-08-28T15:44:24.425Z,22.63
2022-08-28T15:46:55.260Z,22.64
2022-08-28T15:49:24.207Z,22.73
2022-08-28T15:51:52.149Z,22.74
2022-08-28T15:54:21.036Z,22.77
2022-08-28T15:56:49.619Z,22.69
2022-08-28T15:59:18.665Z,22.88
2022-08-28T16:01:46.343Z,23.14
2022-08-28T16:04:14.849Z,23.17
2022-08-28T16:06:42.342Z,23.33
2022-08-28T16:09:10.926Z,23.54
2022-08-28T16:11:41.139Z,23.66
2022-08-28T16:14:08.438Z,23.24
2022-08-28T16:16:35.770Z,22.68
2022-08-28T16:19:42.168Z,22.54
2022-08-28T16:22:11.692Z,22.62
2022-08-28T16:24:39.101Z,22.58
2022-08-28T16:27:08.711Z,22.50
2022-08-28T16:29:39.763Z,22.41
2022-08-28T16:32:06.990Z,22.33
2022-08-28T16:34:34.876Z,22.31
2022-08-28T16:37:04.425Z,22.29
2022-08-28T16:39:31.839Z,22.36
2022-08-28T16:41:58.969Z,22.26
2022-08-28T16:44:26.753Z,22.21
2022-08-28T16:46:55.484Z,22.20
2022-08-28T16:49:23.645Z,22.27
2022-08-28T16:51:51.467Z,22.05
2022-08-28T16:54:19.151Z,21.83
2022-08-28T16:56:46.726Z,21.61
2022-08-28T16:59:16.811Z,21.31
2022-08-28T17:01:44.028Z,21.37
2022-08-28T17:04:12.312Z,21.27
2022-08-28T17:06:40.216Z,21.24
2022-08-28T17:09:07.458Z,21.11
2022-08-28T17:11:34.631Z,21.23
2022-08-28T17:14:02.100Z,21.20
2022-08-28T17:16:31.650Z,21.18
2022-08-28T17:18:59.657Z,21.08
2022-08-28T17:21:45.439Z,20.99
2022-08-28T17:24:13.220Z,20.90
2022-08-28T17:26:41.795Z,20.69
2022-08-28T17:29:09.599Z,20.61
2022-08-28T17:31:37.699Z,20.66
2022-08-28T17:34:07.258Z,20.60
2022-08-28T17:36:37.382Z,20.47
2022-08-28T17:39:08.689Z,20.29
2022-08-28T17:41:36.594Z,20.25
2022-08-28T17:44:05.363Z,20.18
2022-08-28T17:46:37.726Z,20.07
2022-08-28T17:49:07.140Z,20.03
2022-08-28T17:51:43.352Z,19.92
2022-08-28T17:54:17.797Z,19.92
2022-08-28T17:56:45.462Z,19.87
2022-08-28T17:59:13.507Z,19.78
2022-08-28T18:01:42.662Z,19.70
2022-08-28T18:04:10.801Z,19.72
2022-08-28T18:06:38.034Z,19.56
2022-08-28T18:09:06.795Z,19.52
2022-08-28T18:11:34.578Z,19.43
2022-08-28T18:14:01.661Z,19.36
2022-08-28T18:16:31.844Z,19.35
2022-08-28T18:19:00.142Z,19.18
2022-08-28T18:21:28.359Z,19.17
2022-08-28T18:23:56.289Z,19.12
2022-08-28T18:26:23.530Z,19.12
2022-08-28T18:28:51.449Z,19.05
2022-08-28T18:31:19.551Z,18.94
2022-08-28T18:33:46.752Z,18.88
2022-08-28T18:36:15.007Z,18.78
2022-08-28T18:38:43.617Z,18.67
2022-08-28T18:41:12.059Z,18.63
2022-08-28T18:43:39.607Z,18.57
2022-08-28T18:46:08.934Z,18.57
2022-08-28T18:48:37.389Z,18.52
2022-08-28T18:51:09.120Z,18.46
2022-08-28T18:53:36.672Z,18.45
2022-08-28T18:56:04.540Z,18.41
2022-08-28T18:58:34.607Z,18.36
2022-08-28T19:01:03.391Z,18.32
2022-08-28T19:03:30.826Z,18.32
2022-08-28T19:05:58.467Z,18.19
2022-08-28T19:08:26.337Z,18.09
2022-08-28T19:10:54.467Z,18.09
2022-08-28T19:13:21.623Z,18.08
2022-08-28T19:15:52.773Z,18.03
2022-08-28T19:18:20.436Z,17.99
2022-08-28T19:20:48.180Z,17.98
2022-08-28T19:23:17.916Z,17.97
2022-08-28T19:25:46.038Z,17.94
2022-08-28T19:28:13.887Z,17.96
2022-08-28T19:30:41.222Z,17.90
2022-08-28T19:33:08.542Z,17.87
2022-08-28T19:35:36.189Z,17.85
2022-08-28T19:38:03.504Z,17.90
2022-08-28T19:40:31.643Z,17.89
2022-08-28T19:43:00.736Z,17.93
2022-08-28T19:45:28.812Z,17.88
2022-08-28T19:47:56.005Z,17.95
2022-08-28T19:50:23.324Z,17.94
2022-08-28T19:52:50.571Z,17.91
2022-08-28T19:55:25.889Z,17.97
2022-08-28T19:57:53.430Z,17.91
2022-08-28T20:00:24.128Z,17.86
2022-08-28T20:02:52.438Z,17.88
2022-08-28T20:05:20.425Z,17.81
2022-08-28T20:07:47.898Z,17.81
2022-08-28T20:10:16.709Z,17.80
2022-08-28T20:12:48.570Z,17.79
2022-08-28T20:15:19.040Z,17.71
2022-08-28T20:17:50.045Z,17.67
2022-08-28T20:20:20.291Z,17.63
2022-08-28T20:22:47.641Z,17.65
2022-08-28T20:25:15.692Z,17.54
2022-08-28T20:27:42.711Z,17.52
2022-08-28T20:30:11.386Z,17.54
2022-08-28T20:32:40.040Z,17.52
2022-08-28T20:35:09.979Z,17.50
2022-08-28T20:37:44.928Z,17.51
2022-08-28T20:40:17.245Z,17.46
2022-08-28T20:42:45.258Z,17.41
2022-08-28T20:45:14.158Z,17.39
2022-08-28T20:47:41.249Z,17.37
2022-08-28T20:50:09.148Z,17.35
2022-08-28T20:52:36.301Z,17.32
2022-08-28T20:55:05.419Z,17.23
2022-08-28T20:57:32.843Z,17.21
2022-08-28T21:00:04.817Z,17.11
2022-08-28T21:02:33.465Z,17.12
2022-08-28T21:05:00.703Z,17.11
2022-08-28T21:07:28.876Z,17.08
2022-08-28T21:10:05.529Z,17.05
2022-08-28T21:12:39.051Z,17.02
2022-08-28T21:15:08.808Z,17.05
2022-08-28T21:17:36.307Z,17.04
2022-08-28T21:20:11.187Z,17.03
2022-08-28T21:22:39.389Z,17.04
2022-08-28T21:25:09.952Z,17.01
2022-08-28T21:27:38.097Z,16.97
2022-08-28T21:30:06.619Z,16.97
2022-08-28T21:32:34.713Z,16.95
2022-08-28T21:35:03.955Z,16.90
2022-08-28T21:37:31.608Z,16.88
2022-08-28T21:39:59.889Z,16.87
2022-08-28T21:42:28.305Z,16.86
2022-08-28T21:44:55.347Z,16.81
2022-08-28T21:47:23.540Z,16.82
2022-08-28T21:49:53.495Z,16.79
2022-08-28T21:52:22.483Z,16.85
2022-08-28T21:54:50.119Z,16.90
2022-08-28T21:57:17.958Z,16.89
2022-08-28T21:59:45.104Z,16.97
2022-08-28T22:02:13.926Z,17.05
2022-08-28T22:04:41.081Z,17.13
2022-08-28T22:07:11.477Z,17.16
2022-08-28T22:09:39.026Z,17.17
2022-08-28T22:12:06.552Z,17.21
2022-08-28T22:14:33.592Z,17.24
2022-08-28T22:17:00.797Z,17.23
2022-08-28T22:19:28.107Z,17.28
2022-08-28T22:22:13.834Z,17.21
2022-08-28T22:24:41.055Z,17.29
2022-08-28T22:27:08.195Z,17.37
2022-08-28T22:29:36.644Z,17.43
2022-08-28T22:32:04.742Z,17.39
2022-08-28T22:34:35.813Z,17.34
2022-08-28T22:37:02.829Z,17.29
2022-08-28T22:39:30.111Z,17.28
2022-08-28T22:41:57.513Z,17.26
2022-08-28T22:44:24.507Z,17.29
2022-08-28T22:46:51.621Z,17.25
2022-08-28T22:49:18.683Z,17.33
2022-08-28T22:51:45.753Z,17.37
2022-08-28T22:54:12.947Z,17.41
2022-08-28T22:56:40.106Z,17.40
2022-08-28T22:59:07.160Z,17.52
2022-08-28T23:01:34.358Z,17.54
2022-08-28T23:04:02.892Z,17.56
2022-08-28T23:06:33.245Z,17.56
2022-08-28T23:09:00.385Z,17.48
2022-08-28T23:11:27.446Z,17.56
2022-08-28T23:13:54.866Z,17.56
2022-08-28T23:16:24.275Z,17.57
2022-08-28T23:19:09.239Z,17.60
2022-08-28T23:21:43.403Z,17.61
2022-08-28T23:24:13.227Z,17.65
2022-08-28T23:26:40.675Z,17.71
2022-08-28T23:29:08.157Z,17.73
2022-08-28T23:31:35.920Z,17.75
2022-08-28T23:34:04.919Z,17.77
2022-08-28T23:36:35.390Z,17.73
2022-08-28T23:39:03.778Z,17.70
2022-08-28T23:41:31.760Z,17.71
2022-08-28T23:43:58.910Z,17.72
2022-08-28T23:46:26.108Z,17.69
2022-08-28T23:48:53.133Z,17.75
2022-08-28T23:51:21.662Z,17.67
2022-08-28T23:53:49.447Z,17.66
2022-08-28T23:56:17.352Z,17.74
2022-08-28T23:58:45.563Z,17.78
